sensor_id;sensor_type;location;lat;lon;timestamp;temperature;humidity
24686;DHT22;12804;51.176;4.452;2023-01-26T00:01:29;0.80;99.90
24686;DHT22;12804;51.176;4.452;2023-01-26T00:03:55;0.90;99.90
24686;DHT22;12804;51.176;4.452;2023-01-26T00:06:22;0.90;99.90
24686;DHT22;12804;51.176;4.452;2023-01-26T00:08:50;0.90;99.90
24686;DHT22;12804;51.176;4.452;2023-01-26T00:11:24;0.90;99.90
24686;DHT22;12804;51.176;4.452;2023-01-26T00:13:58;0.80;99.90
24686;DHT22;12804;51.176;4.452;2023-01-26T00:16:25;0.80;99.90
24686;DHT22;12804;51.176;4.452;2023-01-26T00:18:51;0.90;99.90
24686;DHT22;12804;51.176;4.452;2023-01-26T00:21:22;1.00;99.90
24686;DHT22;12804;51.176;4.452;2023-01-26T00:23:49;1.00;99.90
24686;DHT22;12804;51.176;4.452;2023-01-26T00:26:21;0.90;99.90
24686;DHT22;12804;51.176;4.452;2023-01-26T00:28:48;0.80;99.90
24686;DHT22;12804;51.176;4.452;2023-01-26T00:31:17;0.80;99.90
24686;DHT22;12804;51.176;4.452;2023-01-26T00:33:43;0.90;99.90
24686;DHT22;12804;51.176;4.452;2023-01-26T00:36:10;0.90;99.90
24686;DHT22;12804;51.176;4.452;2023-01-26T00:38:36;0.80;99.90
24686;DHT22;12804;51.176;4.452;2023-01-26T00:41:02;0.90;99.90
24686;DHT22;12804;51.176;4.452;2023-01-26T00:43:28;0.90;99.90
24686;DHT22;12804;51.176;4.452;2023-01-26T00:45:54;1.00;99.90
24686;DHT22;12804;51.176;4.452;2023-01-26T00:48:19;1.00;99.90
24686;DHT22;12804;51.176;4.452;2023-01-26T00:50:45;1.20;99.90
24686;DHT22;12804;51.176;4.452;2023-01-26T00:53:11;1.20;99.90
24686;DHT22;12804;51.176;4.452;2023-01-26T00:55:37;1.30;99.90
24686;DHT22;12804;51.176;4.452;2023-01-26T00:58:06;1.20;99.90
24686;DHT22;12804;51.176;4.452;2023-01-26T01:00:33;1.10;99.90
24686;DHT22;12804;51.176;4.452;2023-01-26T01:03:00;1.00;99.90
24686;DHT22;12804;51.176;4.452;2023-01-26T01:05:28;1.00;99.90
24686;DHT22;12804;51.176;4.452;2023-01-26T01:07:54;1.10;99.90
24686;DHT22;12804;51.176;4.452;2023-01-26T01:10:20;1.00;99.90
24686;DHT22;12804;51.176;4.452;2023-01-26T01:12:46;1.10;99.90
24686;DHT22;12804;51.176;4.452;2023-01-26T01:15:12;1.00;99.90
24686;DHT22;12804;51.176;4.452;2023-01-26T01:17:38;1.00;99.90
24686;DHT22;12804;51.176;4.452;2023-01-26T01:20:05;1.00;99.90
24686;DHT22;12804;51.176;4.452;2023-01-26T01:22:32;0.90;99.90
24686;DHT22;12804;51.176;4.452;2023-01-26T01:24:58;1.00;99.90
24686;DHT22;12804;51.176;4.452;2023-01-26T01:27:24;1.00;99.90
24686;DHT22;12804;51.176;4.452;2023-01-26T01:29:50;1.00;99.90
24686;DHT22;12804;51.176;4.452;2023-01-26T01:32:17;0.90;99.90
24686;DHT22;12804;51.176;4.452;2023-01-26T01:34:48;0.90;99.90
24686;DHT22;12804;51.176;4.452;2023-01-26T01:37:15;0.90;99.90
24686;DHT22;12804;51.176;4.452;2023-01-26T01:39:41;0.90;99.90
24686;DHT22;12804;51.176;4.452;2023-01-26T01:42:07;1.00;99.90
24686;DHT22;12804;51.176;4.452;2023-01-26T01:44:35;1.10;99.90
24686;DHT22;12804;51.176;4.452;2023-01-26T01:47:22;1.10;99.90
24686;DHT22;12804;51.176;4.452;2023-01-26T01:49:52;1.00;99.90
24686;DHT22;12804;51.176;4.452;2023-01-26T01:52:26;1.10;99.90
24686;DHT22;12804;51.176;4.452;2023-01-26T01:55:00;1.20;99.90
24686;DHT22;12804;51.176;4.452;2023-01-26T01:57:36;1.40;99.90
24686;DHT22;12804;51.176;4.452;2023-01-26T02:00:11;1.50;99.90
24686;DHT22;12804;51.176;4.452;2023-01-26T02:02:43;1.50;99.90
24686;DHT22;12804;51.176;4.452;2023-01-26T02:05:14;1.70;99.90
24686;DHT22;12804;51.176;4.452;2023-01-26T02:07:41;1.80;99.90
24686;DHT22;12804;51.176;4.452;2023-01-26T02:10:08;1.70;99.90
24686;DHT22;12804;51.176;4.452;2023-01-26T02:12:49;1.60;99.90
24686;DHT22;12804;51.176;4.452;2023-01-26T02:15:16;1.70;99.90
24686;DHT22;12804;51.176;4.452;2023-01-26T02:17:42;1.80;99.90
24686;DHT22;12804;51.176;4.452;2023-01-26T02:28:19;2.00;99.90
24686;DHT22;12804;51.176;4.452;2023-01-26T02:30:46;2.00;99.90
24686;DHT22;12804;51.176;4.452;2023-01-26T02:33:31;2.00;99.90
24686;DHT22;12804;51.176;4.452;2023-01-26T02:36:00;1.90;99.90
24686;DHT22;12804;51.176;4.452;2023-01-26T02:38:43;2.00;99.90
24686;DHT22;12804;51.176;4.452;2023-01-26T02:41:13;2.00;99.90
24686;DHT22;12804;51.176;4.452;2023-01-26T02:44:06;1.80;99.90
24686;DHT22;12804;51.176;4.452;2023-01-26T02:46:33;1.80;99.90
24686;DHT22;12804;51.176;4.452;2023-01-26T02:48:58;1.90;99.90
24686;DHT22;12804;51.176;4.452;2023-01-26T02:51:43;2.00;99.90
24686;DHT22;12804;51.176;4.452;2023-01-26T02:54:09;2.00;99.90
24686;DHT22;12804;51.176;4.452;2023-01-26T02:56:57;2.10;99.90
24686;DHT22;12804;51.176;4.452;2023-01-26T02:59:23;2.00;99.90
24686;DHT22;12804;51.176;4.452;2023-01-26T03:01:50;1.80;99.90
24686;DHT22;12804;51.176;4.452;2023-01-26T03:04:17;1.80;99.90
24686;DHT22;12804;51.176;4.452;2023-01-26T03:06:42;1.70;99.90
24686;DHT22;12804;51.176;4.452;2023-01-26T03:09:10;1.80;99.90
24686;DHT22;12804;51.176;4.452;2023-01-26T03:11:36;1.60;99.90
24686;DHT22;12804;51.176;4.452;2023-01-26T03:14:09;1.60;99.90
24686;DHT22;12804;51.176;4.452;2023-01-26T03:16:37;1.70;99.90
24686;DHT22;12804;51.176;4.452;2023-01-26T03:19:04;1.80;99.90
24686;DHT22;12804;51.176;4.452;2023-01-26T03:21:48;1.80;99.90
24686;DHT22;12804;51.176;4.452;2023-01-26T03:24:33;1.90;99.90
24686;DHT22;12804;51.176;4.452;2023-01-26T03:27:17;1.80;99.90
24686;DHT22;12804;51.176;4.452;2023-01-26T03:29:56;1.90;99.90
24686;DHT22;12804;51.176;4.452;2023-01-26T03:32:23;1.80;99.90
24686;DHT22;12804;51.176;4.452;2023-01-26T03:34:50;1.80;99.90
24686;DHT22;12804;51.176;4.452;2023-01-26T03:37:16;1.60;99.90
24686;DHT22;12804;51.176;4.452;2023-01-26T03:39:55;1.50;99.90
24686;DHT22;12804;51.176;4.452;2023-01-26T03:42:40;1.70;99.90
24686;DHT22;12804;51.176;4.452;2023-01-26T03:45:26;1.70;99.90
24686;DHT22;12804;51.176;4.452;2023-01-26T03:48:11;1.80;99.90
24686;DHT22;12804;51.176;4.452;2023-01-26T03:50:56;1.80;99.90
24686;DHT22;12804;51.176;4.452;2023-01-26T03:53:42;1.70;99.90
24686;DHT22;12804;51.176;4.452;2023-01-26T03:56:27;1.60;99.90
24686;DHT22;12804;51.176;4.452;2023-01-26T03:59:04;1.70;99.90
24686;DHT22;12804;51.176;4.452;2023-01-26T04:01:35;1.80;99.90
24686;DHT22;12804;51.176;4.452;2023-01-26T04:04:01;1.80;99.90
24686;DHT22;12804;51.176;4.452;2023-01-26T04:06:47;1.80;99.90
24686;DHT22;12804;51.176;4.452;2023-01-26T04:09:36;1.80;99.90
24686;DHT22;12804;51.176;4.452;2023-01-26T04:12:03;2.00;99.90
24686;DHT22;12804;51.176;4.452;2023-01-26T04:14:29;1.90;99.90
24686;DHT22;12804;51.176;4.452;2023-01-26T04:17:14;1.80;99.90
24686;DHT22;12804;51.176;4.452;2023-01-26T04:19:59;1.80;99.90
24686;DHT22;12804;51.176;4.452;2023-01-26T04:22:43;1.90;99.90
24686;DHT22;12804;51.176;4.452;2023-01-26T04:25:16;1.80;99.90
24686;DHT22;12804;51.176;4.452;2023-01-26T04:27:42;1.90;99.90
24686;DHT22;12804;51.176;4.452;2023-01-26T04:30:11;1.80;99.90
24686;DHT22;12804;51.176;4.452;2023-01-26T04:32:38;1.70;99.90
24686;DHT22;12804;51.176;4.452;2023-01-26T04:35:04;1.70;99.90
24686;DHT22;12804;51.176;4.452;2023-01-26T04:37:32;1.80;99.90
24686;DHT22;12804;51.176;4.452;2023-01-26T04:39:59;2.00;99.90
24686;DHT22;12804;51.176;4.452;2023-01-26T04:42:27;2.00;99.90
24686;DHT22;12804;51.176;4.452;2023-01-26T04:44:54;2.00;99.90
24686;DHT22;12804;51.176;4.452;2023-01-26T04:47:21;2.00;99.90
24686;DHT22;12804;51.176;4.452;2023-01-26T04:49:47;2.20;99.90
24686;DHT22;12804;51.176;4.452;2023-01-26T04:52:15;2.30;99.90
24686;DHT22;12804;51.176;4.452;2023-01-26T04:54:41;2.10;99.90
24686;DHT22;12804;51.176;4.452;2023-01-26T04:57:07;2.20;99.90
24686;DHT22;12804;51.176;4.452;2023-01-26T04:59:34;2.10;99.90
24686;DHT22;12804;51.176;4.452;2023-01-26T05:02:01;2.00;99.90
24686;DHT22;12804;51.176;4.452;2023-01-26T05:04:27;2.10;99.90
24686;DHT22;12804;51.176;4.452;2023-01-26T05:06:53;2.20;99.90
24686;DHT22;12804;51.176;4.452;2023-01-26T05:09:22;2.40;99.90
24686;DHT22;12804;51.176;4.452;2023-01-26T05:11:59;2.40;99.90
24686;DHT22;12804;51.176;4.452;2023-01-26T05:15:07;2.30;99.90
24686;DHT22;12804;51.176;4.452;2023-01-26T05:17:49;2.40;99.90
24686;DHT22;12804;51.176;4.452;2023-01-26T05:20:32;2.40;99.90
24686;DHT22;12804;51.176;4.452;2023-01-26T05:23:04;2.50;99.90
24686;DHT22;12804;51.176;4.452;2023-01-26T05:25:45;2.50;99.90
24686;DHT22;12804;51.176;4.452;2023-01-26T05:28:12;2.30;99.90
24686;DHT22;12804;51.176;4.452;2023-01-26T05:30:39;2.20;99.90
24686;DHT22;12804;51.176;4.452;2023-01-26T05:33:06;2.20;99.90
24686;DHT22;12804;51.176;4.452;2023-01-26T05:35:33;2.20;99.90
24686;DHT22;12804;51.176;4.452;2023-01-26T05:37:59;2.40;99.90
24686;DHT22;12804;51.176;4.452;2023-01-26T05:40:27;2.50;99.90
24686;DHT22;12804;51.176;4.452;2023-01-26T05:42:54;2.60;99.90
24686;DHT22;12804;51.176;4.452;2023-01-26T05:45:26;2.70;99.90
24686;DHT22;12804;51.176;4.452;2023-01-26T05:47:55;2.80;99.90
24686;DHT22;12804;51.176;4.452;2023-01-26T05:50:21;2.90;99.90
24686;DHT22;12804;51.176;4.452;2023-01-26T05:53:07;2.90;99.90
24686;DHT22;12804;51.176;4.452;2023-01-26T05:55:35;2.70;99.90
24686;DHT22;12804;51.176;4.452;2023-01-26T05:58:01;2.80;99.90
24686;DHT22;12804;51.176;4.452;2023-01-26T06:00:26;2.70;99.90
24686;DHT22;12804;51.176;4.452;2023-01-26T06:03:00;2.70;99.90
24686;DHT22;12804;51.176;4.452;2023-01-26T06:05:27;2.80;99.90
24686;DHT22;12804;51.176;4.452;2023-01-26T06:07:54;2.80;99.90
24686;DHT22;12804;51.176;4.452;2023-01-26T06:10:30;2.70;99.90
24686;DHT22;12804;51.176;4.452;2023-01-26T06:13:08;2.60;99.90
24686;DHT22;12804;51.176;4.452;2023-01-26T06:15:46;2.30;99.90
24686;DHT22;12804;51.176;4.452;2023-01-26T06:18:11;2.30;99.90
24686;DHT22;12804;51.176;4.452;2023-01-26T06:20:43;2.20;99.90
24686;DHT22;12804;51.176;4.452;2023-01-26T06:23:09;2.40;99.90
24686;DHT22;12804;51.176;4.452;2023-01-26T06:25:37;2.40;99.90
24686;DHT22;12804;51.176;4.452;2023-01-26T06:28:06;2.40;99.90
24686;DHT22;12804;51.176;4.452;2023-01-26T06:30:32;2.40;99.90
24686;DHT22;12804;51.176;4.452;2023-01-26T06:33:01;2.60;99.90
24686;DHT22;12804;51.176;4.452;2023-01-26T06:35:28;2.60;99.90
24686;DHT22;12804;51.176;4.452;2023-01-26T06:37:57;2.80;99.90
24686;DHT22;12804;51.176;4.452;2023-01-26T06:40:23;2.80;99.90
24686;DHT22;12804;51.176;4.452;2023-01-26T06:42:50;2.90;99.90
24686;DHT22;12804;51.176;4.452;2023-01-26T06:45:17;3.00;99.90
24686;DHT22;12804;51.176;4.452;2023-01-26T06:47:47;3.10;99.90
24686;DHT22;12804;51.176;4.452;2023-01-26T06:50:15;3.20;99.90
24686;DHT22;12804;51.176;4.452;2023-01-26T06:52:41;3.20;99.90
24686;DHT22;12804;51.176;4.452;2023-01-26T06:55:34;3.30;99.90
24686;DHT22;12804;51.176;4.452;2023-01-26T06:58:33;3.30;99.90
24686;DHT22;12804;51.176;4.452;2023-01-26T07:01:37;3.20;99.90
24686;DHT22;12804;51.176;4.452;2023-01-26T07:04:04;3.20;99.90
24686;DHT22;12804;51.176;4.452;2023-01-26T07:06:30;3.30;99.90
24686;DHT22;12804;51.176;4.452;2023-01-26T07:08:55;3.30;99.90
24686;DHT22;12804;51.176;4.452;2023-01-26T07:11:21;3.40;99.90
24686;DHT22;12804;51.176;4.452;2023-01-26T07:13:48;3.40;99.90
24686;DHT22;12804;51.176;4.452;2023-01-26T07:16:15;3.40;99.90
24686;DHT22;12804;51.176;4.452;2023-01-26T07:18:41;3.50;99.90
24686;DHT22;12804;51.176;4.452;2023-01-26T07:21:14;3.50;99.90
24686;DHT22;12804;51.176;4.452;2023-01-26T07:23:40;3.50;99.90
24686;DHT22;12804;51.176;4.452;2023-01-26T07:26:07;3.50;99.90
24686;DHT22;12804;51.176;4.452;2023-01-26T07:28:32;3.60;99.90
24686;DHT22;12804;51.176;4.452;2023-01-26T07:31:03;3.60;99.90
24686;DHT22;12804;51.176;4.452;2023-01-26T07:33:29;3.70;99.90
24686;DHT22;12804;51.176;4.452;2023-01-26T07:35:56;4.50;99.90
24686;DHT22;12804;51.176;4.452;2023-01-26T07:38:22;4.50;99.90
24686;DHT22;12804;51.176;4.452;2023-01-26T07:40:49;4.30;99.90
24686;DHT22;12804;51.176;4.452;2023-01-26T07:43:15;4.10;99.90
24686;DHT22;12804;51.176;4.452;2023-01-26T07:45:51;4.10;99.90
24686;DHT22;12804;51.176;4.452;2023-01-26T07:48:18;4.10;99.90
24686;DHT22;12804;51.176;4.452;2023-01-26T07:50:45;4.00;99.90
24686;DHT22;12804;51.176;4.452;2023-01-26T07:53:13;4.00;99.90
24686;DHT22;12804;51.176;4.452;2023-01-26T07:55:44;4.00;99.90
24686;DHT22;12804;51.176;4.452;2023-01-26T07:58:10;3.90;99.90
24686;DHT22;12804;51.176;4.452;2023-01-26T08:00:37;3.90;99.90
24686;DHT22;12804;51.176;4.452;2023-01-26T08:03:03;3.90;99.90
24686;DHT22;12804;51.176;4.452;2023-01-26T08:05:29;4.00;99.90
24686;DHT22;12804;51.176;4.452;2023-01-26T08:07:59;4.00;99.90
24686;DHT22;12804;51.176;4.452;2023-01-26T08:10:26;4.00;99.90
24686;DHT22;12804;51.176;4.452;2023-01-26T08:12:59;4.10;99.90
24686;DHT22;12804;51.176;4.452;2023-01-26T08:15:28;4.00;99.90
24686;DHT22;12804;51.176;4.452;2023-01-26T08:17:54;4.10;99.90
24686;DHT22;12804;51.176;4.452;2023-01-26T08:20:21;4.20;99.90
24686;DHT22;12804;51.176;4.452;2023-01-26T08:22:47;4.20;99.90
24686;DHT22;12804;51.176;4.452;2023-01-26T08:25:13;4.20;99.90
24686;DHT22;12804;51.176;4.452;2023-01-26T08:27:38;4.30;99.90
24686;DHT22;12804;51.176;4.452;2023-01-26T08:30:05;4.40;99.90
24686;DHT22;12804;51.176;4.452;2023-01-26T08:32:31;4.50;99.90
24686;DHT22;12804;51.176;4.452;2023-01-26T08:34:57;4.50;99.90
24686;DHT22;12804;51.176;4.452;2023-01-26T08:37:23;4.60;99.90
24686;DHT22;12804;51.176;4.452;2023-01-26T08:39:48;4.60;99.90
24686;DHT22;12804;51.176;4.452;2023-01-26T08:42:14;4.60;99.90
24686;DHT22;12804;51.176;4.452;2023-01-26T08:44:40;4.70;99.90
24686;DHT22;12804;51.176;4.452;2023-01-26T08:47:06;4.70;99.90
24686;DHT22;12804;51.176;4.452;2023-01-26T08:49:32;4.80;99.90
24686;DHT22;12804;51.176;4.452;2023-01-26T08:51:58;4.80;99.90
24686;DHT22;12804;51.176;4.452;2023-01-26T08:54:23;4.90;99.90
24686;DHT22;12804;51.176;4.452;2023-01-26T08:56:49;5.00;99.90
24686;DHT22;12804;51.176;4.452;2023-01-26T08:59:15;5.00;99.90
24686;DHT22;12804;51.176;4.452;2023-01-26T09:01:41;5.00;99.90
24686;DHT22;12804;51.176;4.452;2023-01-26T09:04:06;5.10;99.90
24686;DHT22;12804;51.176;4.452;2023-01-26T09:06:32;5.10;99.90
24686;DHT22;12804;51.176;4.452;2023-01-26T09:08:58;5.10;99.90
24686;DHT22;12804;51.176;4.452;2023-01-26T09:11:24;5.10;99.90
24686;DHT22;12804;51.176;4.452;2023-01-26T09:13:50;5.10;99.90
24686;DHT22;12804;51.176;4.452;2023-01-26T09:16:23;5.30;99.90
24686;DHT22;12804;51.176;4.452;2023-01-26T09:18:50;5.20;99.90
24686;DHT22;12804;51.176;4.452;2023-01-26T09:21:17;5.20;99.90
24686;DHT22;12804;51.176;4.452;2023-01-26T09:23:43;5.20;99.90
24686;DHT22;12804;51.176;4.452;2023-01-26T09:26:09;5.20;99.90
24686;DHT22;12804;51.176;4.452;2023-01-26T09:28:35;5.30;99.90
24686;DHT22;12804;51.176;4.452;2023-01-26T09:31:06;5.30;99.90
24686;DHT22;12804;51.176;4.452;2023-01-26T09:33:32;5.40;99.90
24686;DHT22;12804;51.176;4.452;2023-01-26T09:36:06;5.50;99.90
24686;DHT22;12804;51.176;4.452;2023-01-26T09:38:32;5.60;99.90
24686;DHT22;12804;51.176;4.452;2023-01-26T09:43:55;5.80;99.90
24686;DHT22;12804;51.176;4.452;2023-01-26T09:46:31;5.80;99.90
24686;DHT22;12804;51.176;4.452;2023-01-26T09:52:05;6.00;99.90
24686;DHT22;12804;51.176;4.452;2023-01-26T09:54:46;6.10;99.90
24686;DHT22;12804;51.176;4.452;2023-01-26T09:57:36;6.20;99.90
24686;DHT22;12804;51.176;4.452;2023-01-26T10:07:46;6.60;99.90
24686;DHT22;12804;51.176;4.452;2023-01-26T10:10:22;6.60;99.90
24686;DHT22;12804;51.176;4.452;2023-01-26T10:12:51;6.80;99.90
24686;DHT22;12804;51.176;4.452;2023-01-26T10:15:30;6.80;99.90
24686;DHT22;12804;51.176;4.452;2023-01-26T10:18:01;6.80;99.90
24686;DHT22;12804;51.176;4.452;2023-01-26T10:20:44;6.90;99.90
24686;DHT22;12804;51.176;4.452;2023-01-26T10:23:28;6.90;99.90
24686;DHT22;12804;51.176;4.452;2023-01-26T10:26:19;6.90;99.90
24686;DHT22;12804;51.176;4.452;2023-01-26T10:28:47;7.10;99.90
24686;DHT22;12804;51.176;4.452;2023-01-26T10:31:26;7.20;99.90
24686;DHT22;12804;51.176;4.452;2023-01-26T10:33:57;7.20;99.90
24686;DHT22;12804;51.176;4.452;2023-01-26T10:36:27;7.30;99.90
24686;DHT22;12804;51.176;4.452;2023-01-26T10:38:54;7.50;99.90
24686;DHT22;12804;51.176;4.452;2023-01-26T10:41:28;7.50;99.90
24686;DHT22;12804;51.176;4.452;2023-01-26T10:44:20;7.60;99.90
24686;DHT22;12804;51.176;4.452;2023-01-26T10:47:02;7.60;99.90
24686;DHT22;12804;51.176;4.452;2023-01-26T10:49:28;7.70;99.90
24686;DHT22;12804;51.176;4.452;2023-01-26T10:52:14;7.80;99.90
24686;DHT22;12804;51.176;4.452;2023-01-26T10:54:42;7.90;99.90
24686;DHT22;12804;51.176;4.452;2023-01-26T10:57:29;8.00;99.90
24686;DHT22;12804;51.176;4.452;2023-01-26T11:00:03;7.90;99.90
24686;DHT22;12804;51.176;4.452;2023-01-26T11:02:35;8.10;99.90
24686;DHT22;12804;51.176;4.452;2023-01-26T11:07:45;8.30;99.90
24686;DHT22;12804;51.176;4.452;2023-01-26T11:10:22;8.20;99.90
24686;DHT22;12804;51.176;4.452;2023-01-26T11:12:49;8.30;99.90
24686;DHT22;12804;51.176;4.452;2023-01-26T11:15:21;8.20;99.90
24686;DHT22;12804;51.176;4.452;2023-01-26T11:39:55;8.40;99.90
24686;DHT22;12804;51.176;4.452;2023-01-26T11:42:42;8.40;99.90
24686;DHT22;12804;51.176;4.452;2023-01-26T11:48:14;8.70;99.90
24686;DHT22;12804;51.176;4.452;2023-01-26T11:51:00;8.80;99.90
24686;DHT22;12804;51.176;4.452;2023-01-26T11:58:57;9.30;99.90
24686;DHT22;12804;51.176;4.452;2023-01-26T12:01:28;9.40;99.90
24686;DHT22;12804;51.176;4.452;2023-01-26T12:03:56;9.50;99.90
24686;DHT22;12804;51.176;4.452;2023-01-26T12:06:35;9.70;99.90
24686;DHT22;12804;51.176;4.452;2023-01-26T12:09:11;9.70;99.90
24686;DHT22;12804;51.176;4.452;2023-01-26T12:15:05;10.00;99.90
24686;DHT22;12804;51.176;4.452;2023-01-26T12:17:41;10.00;99.90
24686;DHT22;12804;51.176;4.452;2023-01-26T12:25:35;10.20;99.90
24686;DHT22;12804;51.176;4.452;2023-01-26T12:28:14;10.20;99.90
24686;DHT22;12804;51.176;4.452;2023-01-26T12:33:14;10.40;99.90
24686;DHT22;12804;51.176;4.452;2023-01-26T12:49:33;11.20;99.90
24686;DHT22;12804;51.176;4.452;2023-01-26T12:52:37;11.30;99.90
24686;DHT22;12804;51.176;4.452;2023-01-26T12:58:04;11.30;99.90
24686;DHT22;12804;51.176;4.452;2023-01-26T13:00:35;11.20;99.90
24686;DHT22;12804;51.176;4.452;2023-01-26T13:03:19;11.20;99.90
24686;DHT22;12804;51.176;4.452;2023-01-26T13:05:55;11.40;99.90
24686;DHT22;12804;51.176;4.452;2023-01-26T13:10:58;11.20;99.90
24686;DHT22;12804;51.176;4.452;2023-01-26T13:18:55;10.70;99.90
24686;DHT22;12804;51.176;4.452;2023-01-26T13:21:30;10.70;99.90
24686;DHT22;12804;51.176;4.452;2023-01-26T13:26:51;10.80;99.90
24686;DHT22;12804;51.176;4.452;2023-01-26T13:31:54;10.80;99.90
24686;DHT22;12804;51.176;4.452;2023-01-26T13:34:41;10.70;99.90
24686;DHT22;12804;51.176;4.452;2023-01-26T13:37:24;10.50;99.90
24686;DHT22;12804;51.176;4.452;2023-01-26T13:39:55;10.40;99.90
24686;DHT22;12804;51.176;4.452;2023-01-26T13:42:26;10.20;99.90
24686;DHT22;12804;51.176;4.452;2023-01-26T13:45:13;9.90;99.90
24686;DHT22;12804;51.176;4.452;2023-01-26T13:47:44;9.90;99.90
24686;DHT22;12804;51.176;4.452;2023-01-26T13:50:22;9.90;99.90
24686;DHT22;12804;51.176;4.452;2023-01-26T13:52:48;9.80;99.90
24686;DHT22;12804;51.176;4.452;2023-01-26T13:55:26;10.00;99.90
24686;DHT22;12804;51.176;4.452;2023-01-26T13:58:12;10.30;99.90
24686;DHT22;12804;51.176;4.452;2023-01-26T14:00:38;10.20;99.90
24686;DHT22;12804;51.176;4.452;2023-01-26T14:03:04;10.30;99.90
24686;DHT22;12804;51.176;4.452;2023-01-26T14:05:31;10.10;99.90
24686;DHT22;12804;51.176;4.452;2023-01-26T14:07:58;10.00;99.90
24686;DHT22;12804;51.176;4.452;2023-01-26T14:10:24;10.00;99.90
24686;DHT22;12804;51.176;4.452;2023-01-26T14:12:52;10.10;99.90
24686;DHT22;12804;51.176;4.452;2023-01-26T14:18:18;9.90;99.90
24686;DHT22;12804;51.176;4.452;2023-01-26T14:20:38;10.00;99.90
24686;DHT22;12804;51.176;4.452;2023-01-26T14:23:13;10.00;99.90
24686;DHT22;12804;51.176;4.452;2023-01-26T14:25:54;10.20;99.90
24686;DHT22;12804;51.176;4.452;2023-01-26T14:28:23;10.20;99.90
24686;DHT22;12804;51.176;4.452;2023-01-26T14:30:51;10.10;99.90
24686;DHT22;12804;51.176;4.452;2023-01-26T14:33:17;10.10;99.90
24686;DHT22;12804;51.176;4.452;2023-01-26T14:35:56;10.10;99.90
24686;DHT22;12804;51.176;4.452;2023-01-26T14:38:22;10.20;99.90
24686;DHT22;12804;51.176;4.452;2023-01-26T14:40:56;10.20;99.90
24686;DHT22;12804;51.176;4.452;2023-01-26T14:43:23;10.20;99.90
24686;DHT22;12804;51.176;4.452;2023-01-26T14:45:57;10.00;99.90
24686;DHT22;12804;51.176;4.452;2023-01-26T14:48:31;10.00;99.90
24686;DHT22;12804;51.176;4.452;2023-01-26T14:51:00;10.00;99.90
24686;DHT22;12804;51.176;4.452;2023-01-26T14:53:27;9.80;99.90
24686;DHT22;12804;51.176;4.452;2023-01-26T14:55:53;9.80;99.90
24686;DHT22;12804;51.176;4.452;2023-01-26T14:58:29;9.90;99.90
24686;DHT22;12804;51.176;4.452;2023-01-26T15:00:58;9.90;99.90
24686;DHT22;12804;51.176;4.452;2023-01-26T15:03:25;9.90;99.90
24686;DHT22;12804;51.176;4.452;2023-01-26T15:09:21;9.90;99.90
24686;DHT22;12804;51.176;4.452;2023-01-26T15:11:57;9.80;99.90
24686;DHT22;12804;51.176;4.452;2023-01-26T15:17:38;9.70;99.90
24686;DHT22;12804;51.176;4.452;2023-01-26T15:22:40;9.50;99.90
24686;DHT22;12804;51.176;4.452;2023-01-26T15:27:54;9.40;99.90
24686;DHT22;12804;51.176;4.452;2023-01-26T15:30:34;9.50;99.90
24686;DHT22;12804;51.176;4.452;2023-01-26T15:33:01;9.40;99.90
24686;DHT22;12804;51.176;4.452;2023-01-26T15:35:29;9.40;99.90
24686;DHT22;12804;51.176;4.452;2023-01-26T15:40:28;9.30;99.90
24686;DHT22;12804;51.176;4.452;2023-01-26T15:43:15;9.20;99.90
24686;DHT22;12804;51.176;4.452;2023-01-26T15:45:53;9.30;99.90
24686;DHT22;12804;51.176;4.452;2023-01-26T15:48:20;9.30;99.90
24686;DHT22;12804;51.176;4.452;2023-01-26T15:50:47;9.20;99.90
24686;DHT22;12804;51.176;4.452;2023-01-26T15:53:14;9.20;99.90
24686;DHT22;12804;51.176;4.452;2023-01-26T15:55:41;9.20;99.90
24686;DHT22;12804;51.176;4.452;2023-01-26T15:58:08;9.10;99.90
24686;DHT22;12804;51.176;4.452;2023-01-26T16:00:35;9.10;99.90
24686;DHT22;12804;51.176;4.452;2023-01-26T16:03:05;9.00;99.90
24686;DHT22;12804;51.176;4.452;2023-01-26T16:05:35;8.90;99.90
24686;DHT22;12804;51.176;4.452;2023-01-26T16:08:01;8.90;99.90
24686;DHT22;12804;51.176;4.452;2023-01-26T16:10:26;8.90;99.90
24686;DHT22;12804;51.176;4.452;2023-01-26T16:12:52;8.80;99.90
24686;DHT22;12804;51.176;4.452;2023-01-26T16:15:43;8.80;99.90
24686;DHT22;12804;51.176;4.452;2023-01-26T16:18:10;8.80;99.90
24686;DHT22;12804;51.176;4.452;2023-01-26T16:20:38;9.10;99.90
24686;DHT22;12804;51.176;4.452;2023-01-26T16:23:25;9.00;99.90
24686;DHT22;12804;51.176;4.452;2023-01-26T16:25:53;9.00;99.90
24686;DHT22;12804;51.176;4.452;2023-01-26T16:28:20;8.90;99.90
24686;DHT22;12804;51.176;4.452;2023-01-26T16:30:48;8.90;99.90
24686;DHT22;12804;51.176;4.452;2023-01-26T16:33:17;8.90;99.90
24686;DHT22;12804;51.176;4.452;2023-01-26T16:35:46;8.80;99.90
24686;DHT22;12804;51.176;4.452;2023-01-26T16:38:12;8.80;99.90
24686;DHT22;12804;51.176;4.452;2023-01-26T16:40:43;8.90;99.90
24686;DHT22;12804;51.176;4.452;2023-01-26T16:43:12;8.90;99.90
24686;DHT22;12804;51.176;4.452;2023-01-26T16:45:39;8.80;99.90
24686;DHT22;12804;51.176;4.452;2023-01-26T16:48:11;8.80;99.90
24686;DHT22;12804;51.176;4.452;2023-01-26T16:50:38;8.70;99.90
24686;DHT22;12804;51.176;4.452;2023-01-26T16:53:30;8.60;99.90
24686;DHT22;12804;51.176;4.452;2023-01-26T16:56:00;8.60;99.90
24686;DHT22;12804;51.176;4.452;2023-01-26T16:58:27;8.50;99.90
24686;DHT22;12804;51.176;4.452;2023-01-26T17:00:55;8.40;99.90
24686;DHT22;12804;51.176;4.452;2023-01-26T17:03:22;8.40;99.90
24686;DHT22;12804;51.176;4.452;2023-01-26T17:05:48;8.30;99.90
24686;DHT22;12804;51.176;4.452;2023-01-26T17:08:15;8.40;99.90
24686;DHT22;12804;51.176;4.452;2023-01-26T17:10:41;8.40;99.90
24686;DHT22;12804;51.176;4.452;2023-01-26T17:13:07;8.40;99.90
24686;DHT22;12804;51.176;4.452;2023-01-26T17:15:33;8.30;99.90
24686;DHT22;12804;51.176;4.452;2023-01-26T17:17:59;8.30;99.90
24686;DHT22;12804;51.176;4.452;2023-01-26T17:20:24;8.30;99.90
24686;DHT22;12804;51.176;4.452;2023-01-26T17:22:50;8.30;99.90
24686;DHT22;12804;51.176;4.452;2023-01-26T17:25:16;8.30;99.90
24686;DHT22;12804;51.176;4.452;2023-01-26T17:27:43;8.30;99.90
24686;DHT22;12804;51.176;4.452;2023-01-26T17:30:10;8.30;99.90
24686;DHT22;12804;51.176;4.452;2023-01-26T17:32:36;8.30;99.90
24686;DHT22;12804;51.176;4.452;2023-01-26T17:35:02;8.40;99.90
24686;DHT22;12804;51.176;4.452;2023-01-26T17:37:28;8.30;99.90
24686;DHT22;12804;51.176;4.452;2023-01-26T17:39:55;8.30;99.90
24686;DHT22;12804;51.176;4.452;2023-01-26T17:42:21;8.30;99.90
24686;DHT22;12804;51.176;4.452;2023-01-26T17:44:47;8.10;99.90
24686;DHT22;12804;51.176;4.452;2023-01-26T17:47:13;8.10;99.90
24686;DHT22;12804;51.176;4.452;2023-01-26T17:49:39;8.20;99.90
24686;DHT22;12804;51.176;4.452;2023-01-26T17:52:05;8.30;99.90
24686;DHT22;12804;51.176;4.452;2023-01-26T17:54:33;8.20;99.90
24686;DHT22;12804;51.176;4.452;2023-01-26T17:56:59;8.20;99.90
24686;DHT22;12804;51.176;4.452;2023-01-26T17:59:25;8.30;99.90
24686;DHT22;12804;51.176;4.452;2023-01-26T18:01:51;8.40;99.90